createdAt,value
2023-01-15T00:02:18.934Z,100.00
2023-01-15T00:04:45.523Z,100.00
2023-01-15T00:07:12.282Z,100.00
2023-01-15T00:09:39.478Z,100.00
2023-01-15T00:12:06.418Z,100.00
2023-01-15T00:14:32.982Z,100.00
2023-01-15T00:16:59.583Z,100.00
2023-01-15T00:19:26.453Z,98.32
2023-01-15T00:21:53.956Z,99.66
2023-01-15T00:24:39.059Z,96.27
2023-01-15T00:27:45.622Z,97.34
2023-01-15T00:30:15.596Z,99.00
2023-01-15T00:32:43.563Z,97.27
2023-01-15T00:35:30.433Z,97.58
2023-01-15T00:37:57.796Z,98.03
2023-01-15T00:40:24.393Z,96.97
2023-01-15T00:42:54.185Z,99.10
2023-01-15T00:45:21.672Z,100.00
2023-01-15T00:47:50.433Z,100.00
2023-01-15T00:50:17.179Z,100.00
2023-01-15T00:52:43.921Z,99.71
2023-01-15T00:55:10.509Z,99.70
2023-01-15T00:57:37.248Z,99.47
2023-01-15T01:00:04.763Z,100.00
2023-01-15T01:02:31.437Z,99.60
2023-01-15T01:04:58.066Z,93.76
2023-01-15T01:07:24.652Z,95.66
2023-01-15T01:09:51.194Z,94.94
2023-01-15T01:12:21.221Z,95.65
2023-01-15T01:14:47.815Z,96.45
2023-01-15T01:17:15.132Z,95.65
2023-01-15T01:19:41.546Z,93.11
2023-01-15T01:22:08.120Z,94.17
2023-01-15T01:24:34.760Z,94.28
2023-01-15T01:27:02.145Z,96.79
2023-01-15T01:29:28.792Z,98.80
2023-01-15T01:31:55.317Z,98.72
2023-01-15T01:34:21.754Z,98.68
2023-01-15T01:36:48.383Z,99.56
2023-01-15T01:39:16.428Z,99.43
2023-01-15T01:41:44.552Z,98.90
2023-01-15T01:44:32.819Z,97.90
2023-01-15T01:47:08.041Z,98.68
2023-01-15T01:49:36.173Z,98.77
2023-01-15T01:52:09.541Z,98.79
2023-01-15T01:54:38.618Z,96.75
2023-01-15T01:57:07.133Z,97.16
2023-01-15T01:59:34.080Z,96.69
2023-01-15T02:02:00.889Z,97.92
2023-01-15T02:04:29.460Z,97.47
2023-01-15T02:06:58.068Z,98.61
2023-01-15T02:09:24.889Z,100.00
2023-01-15T02:11:56.992Z,100.00
2023-01-15T02:14:42.211Z,99.89
2023-01-15T02:17:20.509Z,100.00
2023-01-15T02:20:06.515Z,100.00
2023-01-15T02:23:02.654Z,100.00
2023-01-15T02:25:40.014Z,100.00
2023-01-15T02:28:16.476Z,100.00
2023-01-15T02:30:47.602Z,100.00
2023-01-15T02:33:19.963Z,100.00
2023-01-15T02:35:52.696Z,100.00
2023-01-15T02:38:22.946Z,100.00
2023-01-15T02:40:56.273Z,100.00
2023-01-15T02:43:25.799Z,100.00
2023-01-15T02:45:55.818Z,100.00
2023-01-15T02:48:26.714Z,100.00
2023-01-15T02:50:59.559Z,100.00
2023-01-15T02:53:30.865Z,100.00
2023-01-15T02:56:06.851Z,100.00
2023-01-15T02:58:43.797Z,100.00
2023-01-15T03:01:27.006Z,100.00
2023-01-15T03:04:18.899Z,100.00
2023-01-15T03:07:07.887Z,100.00
2023-01-15T03:09:37.230Z,100.00
2023-01-15T03:12:16.273Z,100.00
2023-01-15T03:15:07.763Z,100.00
2023-01-15T03:17:44.384Z,100.00
2023-01-15T03:20:26.567Z,100.00
2023-01-15T03:23:00.552Z,100.00
2023-01-15T03:25:34.486Z,100.00
2023-01-15T03:28:04.018Z,100.00
2023-01-15T03:30:30.728Z,100.00
2023-01-15T03:32:58.106Z,100.00
2023-01-15T03:35:49.520Z,100.00
2023-01-15T03:38:40.135Z,100.00
2023-01-15T03:41:41.959Z,100.00
2023-01-15T03:44:26.473Z,100.00
2023-01-15T03:47:07.943Z,100.00
2023-01-15T03:49:51.696Z,100.00
2023-01-15T03:53:06.057Z,100.00
2023-01-15T03:55:45.679Z,100.00
2023-01-15T03:58:19.243Z,98.56
2023-01-15T04:00:52.973Z,98.25
2023-01-15T04:03:23.907Z,99.42
2023-01-15T04:05:52.672Z,100.00
2023-01-15T04:08:21.283Z,99.59
2023-01-15T04:10:59.863Z,99.49
2023-01-15T04:13:31.507Z,100.00
2023-01-15T04:15:58.960Z,100.00
2023-01-15T04:18:26.228Z,100.00
2023-01-15T04:20:54.712Z,96.49
2023-01-15T04:23:21.956Z,97.38
2023-01-15T04:25:48.644Z,98.31
2023-01-15T04:28:15.195Z,99.00
2023-01-15T04:30:43.553Z,96.99
2023-01-15T04:33:10.854Z,98.11
2023-01-15T04:35:38.363Z,97.67
2023-01-15T04:38:04.929Z,97.89
2023-01-15T04:40:50.018Z,98.72
2023-01-15T04:43:35.428Z,94.11
2023-01-15T04:46:01.962Z,95.32
2023-01-15T04:48:28.567Z,95.75
2023-01-15T04:50:55.014Z,93.82
2023-01-15T04:53:21.591Z,90.29
2023-01-15T04:55:48.156Z,89.53
2023-01-15T04:58:15.238Z,86.96
2023-01-15T05:00:41.922Z,88.60
2023-01-15T05:03:08.676Z,89.68
2023-01-15T05:05:35.086Z,88.87
2023-01-15T05:08:01.686Z,84.36
2023-01-15T05:10:28.217Z,85.68
2023-01-15T05:12:54.677Z,86.73
2023-01-15T05:15:21.244Z,84.00
2023-01-15T05:17:47.663Z,84.26
2023-01-15T05:20:15.459Z,86.44
2023-01-15T05:22:42.100Z,84.67
2023-01-15T05:25:08.883Z,84.19
2023-01-15T05:27:35.401Z,83.81
2023-01-15T05:30:01.844Z,81.94
2023-01-15T05:32:30.795Z,83.87
2023-01-15T05:34:57.854Z,84.63
2023-01-15T05:37:24.415Z,82.64
2023-01-15T05:39:50.863Z,81.64
2023-01-15T05:42:17.479Z,81.10
2023-01-15T05:44:44.074Z,82.31
2023-01-15T05:47:10.805Z,83.38
2023-01-15T05:49:37.776Z,81.48
2023-01-15T05:52:04.415Z,83.31
2023-01-15T05:54:35.699Z,82.64
2023-01-15T05:57:03.245Z,81.09
2023-01-15T05:59:31.466Z,81.48
2023-01-15T06:01:58.580Z,82.32
2023-01-15T06:04:25.929Z,81.04
2023-01-15T06:06:54.449Z,80.04
2023-01-15T06:09:23.133Z,78.50
2023-01-15T06:11:50.007Z,79.54
2023-01-15T06:14:17.038Z,78.81
2023-01-15T06:16:43.941Z,82.12
2023-01-15T06:19:11.643Z,81.79
2023-01-15T06:21:38.148Z,82.16
2023-01-15T06:24:05.203Z,78.74
2023-01-15T06:26:32.095Z,80.55
2023-01-15T06:28:58.690Z,82.96
2023-01-15T06:31:27.030Z,81.49
2023-01-15T06:33:54.192Z,81.34
2023-01-15T06:36:27.356Z,81.86
2023-01-15T06:38:54.794Z,80.61
2023-01-15T06:41:42.707Z,81.68
2023-01-15T06:44:36.203Z,81.75
2023-01-15T06:47:20.843Z,82.83
2023-01-15T06:49:49.370Z,82.33
2023-01-15T06:52:15.908Z,80.48
2023-01-15T06:54:42.371Z,80.13
2023-01-15T06:57:08.850Z,80.49
2023-01-15T06:59:35.378Z,81.29
2023-01-15T07:02:02.154Z,81.79
2023-01-15T07:04:28.962Z,80.78
2023-01-15T07:06:55.513Z,80.82
2023-01-15T07:09:21.962Z,81.37
2023-01-15T07:11:51.103Z,81.93
2023-01-15T07:14:24.019Z,80.31
2023-01-15T07:16:51.219Z,80.12
2023-01-15T07:19:18.902Z,81.39
2023-01-15T07:21:46.098Z,80.79
2023-01-15T07:24:13.606Z,81.35
2023-01-15T07:26:41.749Z,82.33
2023-01-15T07:29:08.218Z,81.07
2023-01-15T07:31:34.738Z,81.04
2023-01-15T07:34:01.348Z,80.87
2023-01-15T07:36:28.172Z,79.89
2023-01-15T07:38:54.704Z,80.94
2023-01-15T07:41:40.033Z,80.78
2023-01-15T07:44:30.270Z,83.01
2023-01-15T07:47:15.921Z,82.35
2023-01-15T07:49:46.426Z,84.60
2023-01-15T07:52:17.748Z,83.37
2023-01-15T07:54:45.345Z,84.32
2023-01-15T07:57:14.019Z,83.54
2023-01-15T07:59:41.758Z,84.47
2023-01-15T08:02:08.371Z,84.35
2023-01-15T08:04:35.232Z,83.41
2023-01-15T08:07:03.185Z,83.85
2023-01-15T08:09:30.195Z,85.50
2023-01-15T08:12:17.879Z,87.07
2023-01-15T08:15:03.878Z,90.03
2023-01-15T08:17:32.949Z,91.75
2023-01-15T08:19:59.460Z,94.79
2023-01-15T08:22:25.876Z,97.89
2023-01-15T08:24:52.385Z,100.00
2023-01-15T08:27:18.753Z,100.00
2023-01-15T08:29:45.230Z,100.00
2023-01-15T08:32:11.596Z,100.00
2023-01-15T08:34:38.057Z,100.00
2023-01-15T08:37:04.510Z,100.00
2023-01-15T08:39:31.057Z,100.00
2023-01-15T08:41:57.488Z,100.00
2023-01-15T08:44:24.329Z,100.00
2023-01-15T08:46:51.789Z,100.00
2023-01-15T08:49:21.397Z,100.00
2023-01-15T08:51:51.602Z,100.00
2023-01-15T08:54:20.418Z,100.00
2023-01-15T08:56:47.516Z,100.00
2023-01-15T08:59:14.084Z,100.00
2023-01-15T09:01:41.034Z,100.00
2023-01-15T09:04:07.891Z,100.00
2023-01-15T09:06:34.416Z,99.87
2023-01-15T09:09:00.884Z,100.00
2023-01-15T09:11:28.703Z,100.00
2023-01-15T09:13:55.246Z,99.46
2023-01-15T09:16:21.909Z,100.00
2023-01-15T09:18:48.431Z,100.00
2023-01-15T09:21:14.853Z,98.24
2023-01-15T09:23:41.367Z,98.43
2023-01-15T09:26:08.041Z,95.79
2023-01-15T09:28:35.124Z,98.11
2023-01-15T09:31:02.014Z,95.34
2023-01-15T09:33:28.553Z,94.22
2023-01-15T09:35:55.078Z,96.73
2023-01-15T09:38:21.865Z,92.51
2023-01-15T09:40:56.575Z,95.50
2023-01-15T09:43:31.863Z,97.14
2023-01-15T09:46:03.939Z,95.20
2023-01-15T09:48:42.724Z,96.94
2023-01-15T09:51:22.531Z,95.89
2023-01-15T09:53:59.925Z,95.73
2023-01-15T09:56:30.322Z,96.78
2023-01-15T09:58:59.683Z,96.04
2023-01-15T10:01:30.545Z,97.12
2023-01-15T10:04:06.406Z,98.52
2023-01-15T10:06:42.184Z,97.77
2023-01-15T10:09:15.636Z,96.09
2023-01-15T10:12:22.883Z,96.02
2023-01-15T10:15:06.847Z,97.40
2023-01-15T10:17:46.095Z,95.85
2023-01-15T10:20:33.763Z,99.38
2023-01-15T10:23:15.360Z,98.08
2023-01-15T10:25:51.136Z,97.49
2023-01-15T10:29:00.919Z,95.11
2023-01-15T10:31:37.837Z,98.89
2023-01-15T10:34:22.429Z,99.38
2023-01-15T10:37:29.153Z,96.15
2023-01-15T10:40:45.841Z,98.09
2023-01-15T10:43:49.858Z,98.93
2023-01-15T10:46:33.381Z,96.64
2023-01-15T10:49:06.155Z,94.89
2023-01-15T10:52:03.202Z,95.42
2023-01-15T10:54:41.100Z,97.52
2023-01-15T10:57:14.120Z,96.15
2023-01-15T10:59:49.649Z,98.71
2023-01-15T11:02:32.455Z,97.02
2023-01-15T11:04:59.043Z,99.12
2023-01-15T11:07:57.879Z,97.15
2023-01-15T11:10:27.368Z,95.05
2023-01-15T11:13:20.670Z,97.44
2023-01-15T11:32:34.606Z,95.99
2023-01-15T11:35:18.320Z,94.19
2023-01-15T11:37:44.875Z,92.49
2023-01-15T11:40:24.446Z,93.40
2023-01-15T11:43:10.341Z,90.57
2023-01-15T11:46:06.233Z,89.52
2023-01-15T11:49:04.112Z,88.47
2023-01-15T11:51:35.590Z,86.29
2023-01-15T11:54:07.400Z,88.21
2023-01-15T11:56:35.883Z,88.20
2023-01-15T11:59:09.291Z,89.73
2023-01-15T12:01:39.106Z,89.58
2023-01-15T12:04:22.740Z,88.62
2023-01-15T12:06:49.484Z,89.05
2023-01-15T12:09:31.145Z,88.87
2023-01-15T12:12:19.549Z,89.98
2023-01-15T12:15:06.825Z,84.18
2023-01-15T12:17:51.862Z,83.92
2023-01-15T12:20:34.673Z,85.99
2023-01-15T12:23:36.427Z,84.32
2023-01-15T12:26:19.558Z,84.85
2023-01-15T12:29:06.780Z,87.09
2023-01-15T12:31:41.487Z,84.70
2023-01-15T12:34:34.178Z,83.68
2023-01-15T12:37:12.484Z,84.68
2023-01-15T12:39:51.815Z,82.91
2023-01-15T12:42:41.255Z,84.42
2023-01-15T12:45:14.077Z,85.21
2023-01-15T12:47:56.395Z,85.80
2023-01-15T12:50:44.743Z,85.73
2023-01-15T12:53:36.434Z,88.90
2023-01-15T12:56:27.111Z,88.17
2023-01-15T12:59:29.955Z,90.21
2023-01-15T13:02:53.772Z,88.66
2023-01-15T13:05:29.444Z,91.19
2023-01-15T13:08:06.765Z,89.87
2023-01-15T13:10:36.645Z,90.12
2023-01-15T13:13:18.792Z,91.91
2023-01-15T13:16:11.389Z,90.11
2023-01-15T13:19:08.809Z,90.68
2023-01-15T13:21:37.194Z,90.14
2023-01-15T13:24:03.749Z,90.62
2023-01-15T13:26:41.994Z,89.60
2023-01-15T13:29:54.203Z,89.77
2023-01-15T13:32:28.277Z,90.08
2023-01-15T13:35:05.984Z,91.53
2023-01-15T13:37:46.120Z,93.13
2023-01-15T13:40:18.085Z,92.82
2023-01-15T13:42:50.297Z,91.93
2023-01-15T13:45:32.250Z,89.62
2023-01-15T13:48:24.124Z,90.54
2023-01-15T13:50:54.120Z,93.81
2023-01-15T13:53:29.553Z,91.95
2023-01-15T13:56:00.039Z,91.81
2023-01-15T13:58:31.440Z,91.92
2023-01-15T14:01:24.862Z,89.70
2023-01-15T14:04:00.543Z,90.56
2023-01-15T14:06:44.180Z,91.53
2023-01-15T14:09:13.108Z,90.92
2023-01-15T14:11:42.997Z,90.04
2023-01-15T14:14:22.627Z,90.92
2023-01-15T14:17:26.918Z,90.55
2023-01-15T14:20:14.727Z,88.20
2023-01-15T14:22:51.451Z,89.66
2023-01-15T14:25:41.043Z,87.84
2023-01-15T14:28:47.341Z,90.54
2023-01-15T14:31:29.978Z,88.25
2023-01-15T14:34:17.154Z,88.61
2023-01-15T14:36:54.285Z,89.64
2023-01-15T14:39:32.854Z,89.68
2023-01-15T14:42:24.215Z,87.56
2023-01-15T14:45:00.906Z,88.29
2023-01-15T14:47:56.005Z,87.57
2023-01-15T14:50:37.922Z,88.38
2023-01-15T14:53:13.598Z,84.97
2023-01-15T14:56:12.851Z,88.41
2023-01-15T14:59:09.637Z,85.76
2023-01-15T15:01:44.828Z,87.19
2023-01-15T15:04:23.515Z,87.86
2023-01-15T15:06:55.043Z,87.23
2023-01-15T15:09:34.661Z,86.52
2023-01-15T15:12:25.685Z,86.36
2023-01-15T15:15:03.394Z,84.77
2023-01-15T15:17:37.646Z,85.05
2023-01-15T15:20:18.883Z,84.90
2023-01-15T15:22:49.922Z,87.01
2023-01-15T15:25:23.203Z,87.34
2023-01-15T15:28:00.709Z,87.66
2023-01-15T15:30:28.535Z,87.60
2023-01-15T15:32:55.494Z,86.96
2023-01-15T15:35:30.812Z,87.92
2023-01-15T15:38:03.388Z,88.85
2023-01-15T15:40:37.098Z,88.17
2023-01-15T15:43:35.128Z,87.15
2023-01-15T15:46:20.311Z,87.55
2023-01-15T15:48:56.590Z,87.96
2023-01-15T15:51:48.821Z,87.69
2023-01-15T15:54:21.114Z,86.17
2023-01-15T15:56:52.989Z,85.86
2023-01-15T15:59:51.092Z,85.31
2023-01-15T16:02:49.988Z,86.03
2023-01-15T16:05:21.401Z,86.64
2023-01-15T16:07:47.979Z,86.52
2023-01-15T16:10:31.876Z,86.60
2023-01-15T16:13:07.549Z,87.20
2023-01-15T16:15:39.633Z,85.90
2023-01-15T16:18:16.697Z,85.67
2023-01-15T16:20:43.372Z,86.86
2023-01-15T16:23:28.239Z,85.73
2023-01-15T16:26:19.956Z,86.57
2023-01-15T16:28:53.878Z,87.56
2023-01-15T16:31:22.845Z,87.31
2023-01-15T16:33:58.183Z,84.99
2023-01-15T16:36:27.017Z,85.08
2023-01-15T16:38:55.128Z,84.87
2023-01-15T16:41:29.596Z,85.10
2023-01-15T16:44:03.691Z,84.79
2023-01-15T16:46:33.715Z,83.35
2023-01-15T16:49:25.808Z,84.69
2023-01-15T16:51:57.012Z,84.63
2023-01-15T16:54:29.644Z,85.12
2023-01-15T16:56:59.596Z,85.64
2023-01-15T16:59:29.800Z,85.16
2023-01-15T17:02:11.213Z,85.60
2023-01-15T17:04:41.216Z,86.40
2023-01-15T17:07:22.853Z,88.98
2023-01-15T17:09:53.317Z,88.72
2023-01-15T17:12:32.071Z,90.22
2023-01-15T17:15:19.372Z,90.48
2023-01-15T17:17:47.970Z,91.38
2023-01-15T17:20:15.919Z,91.02
2023-01-15T17:22:45.060Z,91.31
2023-01-15T17:25:34.980Z,91.86
2023-01-15T17:28:03.846Z,92.20
2023-01-15T17:30:31.486Z,92.81
2023-01-15T17:32:59.211Z,92.76
2023-01-15T17:35:31.765Z,93.45
2023-01-15T17:37:58.336Z,92.88
2023-01-15T17:40:25.608Z,93.25
2023-01-15T17:42:53.859Z,94.24
2023-01-15T17:45:24.009Z,93.90
2023-01-15T17:47:50.619Z,93.73
2023-01-15T17:50:18.139Z,93.61
2023-01-15T17:52:45.125Z,92.56
2023-01-15T17:55:31.973Z,93.22
2023-01-15T17:58:17.194Z,93.55
2023-01-15T18:01:03.114Z,94.27
2023-01-15T18:03:48.873Z,95.28
2023-01-15T18:06:17.398Z,95.35
2023-01-15T18:08:48.913Z,95.92
2023-01-15T18:11:15.477Z,95.64
2023-01-15T18:13:42.115Z,96.07
2023-01-15T18:16:09.465Z,96.08
2023-01-15T18:18:36.600Z,96.16
2023-01-15T18:21:04.165Z,96.92
2023-01-15T18:23:32.925Z,97.31
2023-01-15T18:26:03.877Z,96.27
2023-01-15T18:28:35.564Z,97.69
2023-01-15T18:31:03.105Z,97.12
2023-01-15T18:33:30.320Z,98.08
2023-01-15T18:36:11.746Z,98.25
2023-01-15T18:38:40.515Z,97.23
2023-01-15T18:41:36.063Z,96.40
2023-01-15T18:44:32.762Z,95.81
2023-01-15T18:47:02.761Z,95.85
2023-01-15T18:49:30.273Z,95.69
2023-01-15T18:52:17.723Z,95.48
2023-01-15T18:54:44.238Z,95.47
2023-01-15T18:57:10.802Z,95.81
2023-01-15T18:59:37.598Z,95.31
2023-01-15T19:02:05.059Z,96.08
2023-01-15T19:04:31.673Z,97.10
2023-01-15T19:06:58.186Z,97.02
2023-01-15T19:09:24.877Z,94.19
2023-01-15T19:11:52.565Z,95.58
2023-01-15T19:14:38.797Z,96.26
2023-01-15T19:17:24.562Z,96.62
2023-01-15T19:19:51.075Z,97.01
2023-01-15T19:22:36.346Z,95.62
2023-01-15T19:25:02.864Z,96.31
2023-01-15T19:27:29.312Z,96.46
2023-01-15T19:29:55.819Z,97.54
2023-01-15T19:32:22.290Z,97.70
2023-01-15T19:34:48.915Z,96.45
2023-01-15T19:37:15.428Z,97.30
2023-01-15T19:39:42.001Z,96.21
2023-01-15T19:42:28.645Z,96.22
2023-01-15T19:45:13.820Z,96.25
2023-01-15T19:47:59.653Z,96.45
2023-01-15T19:50:40.175Z,94.69
2023-01-15T19:53:07.153Z,95.52
2023-01-15T19:55:34.988Z,95.29
2023-01-15T19:58:06.096Z,92.59
2023-01-15T20:00:36.872Z,92.55
2023-01-15T20:03:04.637Z,92.48
2023-01-15T20:05:32.189Z,93.00
2023-01-15T20:07:58.843Z,93.79
2023-01-15T20:10:28.108Z,94.65
2023-01-15T20:13:13.240Z,92.38
2023-01-15T20:15:42.445Z,92.87
2023-01-15T20:18:09.031Z,91.37
2023-01-15T20:20:35.519Z,90.94
2023-01-15T20:23:02.344Z,91.34
2023-01-15T20:25:29.796Z,92.88
2023-01-15T20:27:57.920Z,90.31
2023-01-15T20:30:24.910Z,92.01
2023-01-15T20:32:54.114Z,91.08
2023-01-15T20:35:26.506Z,90.66
2023-01-15T20:37:53.216Z,91.51
2023-01-15T20:40:22.498Z,92.05
2023-01-15T20:43:07.551Z,89.04
2023-01-15T20:45:34.186Z,91.53
2023-01-15T20:48:13.687Z,90.32
2023-01-15T20:50:43.343Z,91.24
2023-01-15T20:53:10.979Z,91.10
2023-01-15T20:55:57.071Z,91.02
2023-01-15T20:58:24.744Z,91.69
2023-01-15T21:00:52.360Z,90.62
2023-01-15T21:03:20.452Z,89.05
2023-01-15T21:05:47.083Z,89.09
2023-01-15T21:08:13.810Z,89.79
2023-01-15T21:10:41.175Z,90.89
2023-01-15T21:13:07.704Z,90.34
2023-01-15T21:15:34.243Z,90.86
2023-01-15T21:18:00.747Z,90.91
2023-01-15T21:20:27.974Z,89.25
2023-01-15T21:22:54.510Z,90.92
2023-01-15T21:25:20.998Z,90.73
2023-01-15T21:27:47.445Z,90.61
2023-01-15T21:30:14.105Z,89.76
2023-01-15T21:32:40.625Z,91.01
2023-01-15T21:35:07.477Z,90.88
2023-01-15T21:37:33.937Z,90.04
2023-01-15T21:40:00.648Z,89.03
2023-01-15T21:42:46.372Z,88.65
2023-01-15T21:45:12.830Z,87.36
2023-01-15T21:47:41.386Z,87.66
2023-01-15T21:50:08.780Z,87.27
2023-01-15T21:52:35.498Z,87.81
2023-01-15T21:55:02.024Z,87.22
2023-01-15T21:57:29.681Z,86.42
2023-01-15T21:59:56.209Z,87.47
2023-01-15T22:02:23.451Z,87.02
2023-01-15T22:04:50.414Z,87.56
2023-01-15T22:07:18.723Z,87.54
2023-01-15T22:09:45.702Z,88.31
2023-01-15T22:12:13.436Z,89.19
2023-01-15T22:14:40.186Z,87.79
2023-01-15T22:17:07.355Z,88.06
2023-01-15T22:19:34.117Z,89.25
2023-01-15T22:22:04.082Z,88.65
2023-01-15T22:24:33.059Z,89.61
2023-01-15T22:27:00.828Z,88.11
2023-01-15T22:29:33.950Z,88.16
2023-01-15T22:32:00.773Z,87.81
2023-01-15T22:34:27.979Z,88.69
2023-01-15T22:36:55.145Z,87.73
2023-01-15T22:39:23.262Z,86.78
2023-01-15T22:42:08.856Z,86.31
2023-01-15T22:44:35.748Z,87.53
2023-01-15T22:47:02.533Z,85.81
2023-01-15T22:49:29.227Z,86.28
2023-01-15T22:51:55.672Z,86.86
2023-01-15T22:54:22.267Z,86.52
2023-01-15T22:56:48.745Z,85.77
2023-01-15T22:59:15.947Z,85.41
2023-01-15T23:17:29.608Z,89.30
2023-01-15T23:19:56.371Z,89.52
2023-01-15T23:22:22.868Z,90.20
2023-01-15T23:24:49.427Z,90.71
2023-01-15T23:27:15.980Z,90.15
2023-01-15T23:29:42.592Z,90.48
2023-01-15T23:32:09.408Z,90.54
2023-01-15T23:34:35.944Z,91.28
2023-01-15T23:37:02.667Z,90.26
2023-01-15T23:39:36.355Z,90.30
2023-01-15T23:42:21.585Z,91.00
2023-01-15T23:45:06.472Z,90.72
2023-01-15T23:47:33.037Z,91.61
2023-01-15T23:49:59.579Z,91.67
2023-01-15T23:52:26.830Z,90.82
2023-01-15T23:54:53.395Z,90.83
2023-01-15T23:57:20.157Z,90.97
2023-01-15T23:59:46.796Z,91.90
